sensor_id;sensor_type;location;lat;lon;timestamp;pressure;altitude;pressure_sealevel;temperature;humidity
65384;BME280;51986;52.788;41.368;2023-01-30T00:01:00;98862.50;;;-2.42;55.23
65384;BME280;51986;52.788;41.368;2023-01-30T00:03:27;98853.31;;;-2.51;55.42
65384;BME280;51986;52.788;41.368;2023-01-30T00:05:54;98861.88;;;-2.60;55.59
65384;BME280;51986;52.788;41.368;2023-01-30T00:08:21;98858.34;;;-2.55;55.00
65384;BME280;51986;52.788;41.368;2023-01-30T00:10:48;98860.53;;;-2.66;55.44
65384;BME280;51986;52.788;41.368;2023-01-30T00:13:15;98845.38;;;-2.67;55.56
65384;BME280;51986;52.788;41.368;2023-01-30T00:15:43;98861.59;;;-2.67;55.67
65384;BME280;51986;52.788;41.368;2023-01-30T00:18:10;98832.03;;;-2.99;55.38
65384;BME280;51986;52.788;41.368;2023-01-30T00:20:37;98838.63;;;-3.10;56.09
65384;BME280;51986;52.788;41.368;2023-01-30T00:23:04;98854.91;;;-2.89;55.39
65384;BME280;51986;52.788;41.368;2023-01-30T00:25:31;98884.81;;;-2.88;54.99
65384;BME280;51986;52.788;41.368;2023-01-30T00:28:00;98847.09;;;-2.80;54.93
65384;BME280;51986;52.788;41.368;2023-01-30T00:30:28;98852.75;;;-2.87;54.58
65384;BME280;51986;52.788;41.368;2023-01-30T00:32:58;98848.22;;;-2.90;55.11
65384;BME280;51986;52.788;41.368;2023-01-30T00:35:25;98850.94;;;-3.16;55.57
65384;BME280;51986;52.788;41.368;2023-01-30T00:37:59;98880.84;;;-3.23;55.91
65384;BME280;51986;52.788;41.368;2023-01-30T00:40:28;98885.41;;;-3.20;55.43
65384;BME280;51986;52.788;41.368;2023-01-30T00:42:55;98865.53;;;-3.20;55.39
65384;BME280;51986;52.788;41.368;2023-01-30T00:45:22;98869.63;;;-3.27;54.90
65384;BME280;51986;52.788;41.368;2023-01-30T00:47:49;98853.56;;;-3.24;55.09
65384;BME280;51986;52.788;41.368;2023-01-30T00:50:16;98849.59;;;-3.22;54.25
65384;BME280;51986;52.788;41.368;2023-01-30T00:52:43;98884.66;;;-3.21;54.63
65384;BME280;51986;52.788;41.368;2023-01-30T00:55:10;98846.75;;;-3.29;54.79
65384;BME280;51986;52.788;41.368;2023-01-30T00:57:37;98855.25;;;-3.37;54.62
65384;BME280;51986;52.788;41.368;2023-01-30T01:00:05;98865.38;;;-3.23;55.02
65384;BME280;51986;52.788;41.368;2023-01-30T01:02:32;98857.06;;;-3.29;54.42
65384;BME280;51986;52.788;41.368;2023-01-30T01:04:59;98848.50;;;-3.12;54.95
65384;BME280;51986;52.788;41.368;2023-01-30T01:07:26;98860.16;;;-3.06;54.52
65384;BME280;51986;52.788;41.368;2023-01-30T01:09:54;98854.41;;;-3.12;53.93
65384;BME280;51986;52.788;41.368;2023-01-30T01:12:20;98829.63;;;-3.34;54.52
65384;BME280;51986;52.788;41.368;2023-01-30T01:14:47;98840.56;;;-3.37;54.65
65384;BME280;51986;52.788;41.368;2023-01-30T01:17:15;98867.22;;;-3.33;54.64
65384;BME280;51986;52.788;41.368;2023-01-30T01:19:42;98849.44;;;-3.17;54.74
65384;BME280;51986;52.788;41.368;2023-01-30T01:22:09;98834.66;;;-3.08;54.63
65384;BME280;51986;52.788;41.368;2023-01-30T01:24:36;98827.03;;;-3.04;53.77
65384;BME280;51986;52.788;41.368;2023-01-30T01:27:03;98813.84;;;-3.02;54.23
65384;BME280;51986;52.788;41.368;2023-01-30T01:29:30;98831.91;;;-3.02;53.92
65384;BME280;51986;52.788;41.368;2023-01-30T01:31:57;98837.47;;;-2.92;53.52
65384;BME280;51986;52.788;41.368;2023-01-30T01:34:24;98831.22;;;-2.91;54.44
65384;BME280;51986;52.788;41.368;2023-01-30T01:36:52;98815.31;;;-2.93;53.20
65384;BME280;51986;52.788;41.368;2023-01-30T01:39:20;98811.34;;;-2.90;53.02
65384;BME280;51986;52.788;41.368;2023-01-30T01:41:49;98837.19;;;-2.69;53.81
65384;BME280;51986;52.788;41.368;2023-01-30T01:44:15;98794.06;;;-2.69;53.43
65384;BME280;51986;52.788;41.368;2023-01-30T01:46:56;98797.13;;;-2.75;54.10
65384;BME280;51986;52.788;41.368;2023-01-30T01:49:33;98817.78;;;-2.75;53.82
65384;BME280;51986;52.788;41.368;2023-01-30T01:52:08;98805.63;;;-2.75;53.19
65384;BME280;51986;52.788;41.368;2023-01-30T01:54:51;98810.47;;;-2.73;53.32
65384;BME280;51986;52.788;41.368;2023-01-30T01:57:26;98802.94;;;-2.78;53.47
65384;BME280;51986;52.788;41.368;2023-01-30T02:00:21;98800.16;;;-2.73;53.51
65384;BME280;51986;52.788;41.368;2023-01-30T02:05:21;98800.19;;;-2.61;53.50
65384;BME280;51986;52.788;41.368;2023-01-30T02:13:36;98794.84;;;-2.77;52.90
65384;BME280;51986;52.788;41.368;2023-01-30T02:16:06;98800.78;;;-2.76;52.81
65384;BME280;51986;52.788;41.368;2023-01-30T02:18:35;98816.63;;;-2.87;53.72
65384;BME280;51986;52.788;41.368;2023-01-30T02:32:29;98786.28;;;-2.90;54.04
65384;BME280;51986;52.788;41.368;2023-01-30T02:45:50;98781.00;;;-3.23;54.70
65384;BME280;51986;52.788;41.368;2023-01-30T02:48:27;98802.09;;;-3.50;54.55
65384;BME280;51986;52.788;41.368;2023-01-30T02:51:02;98773.63;;;-3.33;54.78
65384;BME280;51986;52.788;41.368;2023-01-30T02:53:31;98775.13;;;-3.32;54.99
65384;BME280;51986;52.788;41.368;2023-01-30T02:55:59;98789.56;;;-3.31;54.31
65384;BME280;51986;52.788;41.368;2023-01-30T02:58:31;98803.06;;;-3.34;55.11
65384;BME280;51986;52.788;41.368;2023-01-30T03:12:08;98767.50;;;-3.49;55.17
65384;BME280;51986;52.788;41.368;2023-01-30T03:14:58;98793.81;;;-3.35;55.54
65384;BME280;51986;52.788;41.368;2023-01-30T03:17:28;98772.47;;;-3.44;54.94
65384;BME280;51986;52.788;41.368;2023-01-30T03:19:59;98798.44;;;-3.49;54.95
65384;BME280;51986;52.788;41.368;2023-01-30T03:22:35;98782.72;;;-3.65;55.34
65384;BME280;51986;52.788;41.368;2023-01-30T03:25:03;98753.53;;;-3.48;55.20
65384;BME280;51986;52.788;41.368;2023-01-30T03:27:33;98758.38;;;-3.47;55.13
65384;BME280;51986;52.788;41.368;2023-01-30T03:30:01;98777.09;;;-3.29;54.54
65384;BME280;51986;52.788;41.368;2023-01-30T03:32:28;98778.50;;;-3.32;54.88
65384;BME280;51986;52.788;41.368;2023-01-30T03:34:55;98751.91;;;-3.62;55.18
65384;BME280;51986;52.788;41.368;2023-01-30T03:37:22;98774.50;;;-3.59;55.10
65384;BME280;51986;52.788;41.368;2023-01-30T03:39:49;98766.38;;;-3.69;55.28
65384;BME280;51986;52.788;41.368;2023-01-30T03:42:16;98780.59;;;-3.63;55.59
65384;BME280;51986;52.788;41.368;2023-01-30T03:44:43;98784.97;;;-3.55;55.34
65384;BME280;51986;52.788;41.368;2023-01-30T03:47:10;98788.16;;;-3.58;55.10
65384;BME280;51986;52.788;41.368;2023-01-30T03:49:37;98777.59;;;-3.65;54.88
65384;BME280;51986;52.788;41.368;2023-01-30T03:52:04;98764.72;;;-3.74;55.64
65384;BME280;51986;52.788;41.368;2023-01-30T03:54:31;98787.59;;;-3.72;56.51
65384;BME280;51986;52.788;41.368;2023-01-30T03:56:58;98766.56;;;-3.83;56.09
65384;BME280;51986;52.788;41.368;2023-01-30T03:59:25;98783.53;;;-3.82;56.07
65384;BME280;51986;52.788;41.368;2023-01-30T04:02:00;98784.13;;;-3.76;55.77
65384;BME280;51986;52.788;41.368;2023-01-30T04:04:27;98773.78;;;-3.68;55.16
65384;BME280;51986;52.788;41.368;2023-01-30T04:06:55;98781.72;;;-3.82;55.55
65384;BME280;51986;52.788;41.368;2023-01-30T04:09:23;98785.00;;;-3.64;55.88
65384;BME280;51986;52.788;41.368;2023-01-30T04:11:51;98782.59;;;-3.69;55.31
65384;BME280;51986;52.788;41.368;2023-01-30T04:14:18;98767.63;;;-3.84;56.43
65384;BME280;51986;52.788;41.368;2023-01-30T04:17:23;98780.06;;;-3.95;56.80
65384;BME280;51986;52.788;41.368;2023-01-30T04:20:10;98780.22;;;-3.83;56.39
65384;BME280;51986;52.788;41.368;2023-01-30T04:22:43;98774.19;;;-4.04;56.70
65384;BME280;51986;52.788;41.368;2023-01-30T04:25:10;98776.91;;;-4.00;56.21
65384;BME280;51986;52.788;41.368;2023-01-30T04:27:37;98766.75;;;-3.97;56.11
65384;BME280;51986;52.788;41.368;2023-01-30T04:30:16;98784.06;;;-4.06;56.00
65384;BME280;51986;52.788;41.368;2023-01-30T04:32:46;98750.72;;;-4.11;56.41
65384;BME280;51986;52.788;41.368;2023-01-30T04:35:13;98807.38;;;-3.94;56.02
65384;BME280;51986;52.788;41.368;2023-01-30T04:37:41;98782.94;;;-3.88;56.01
65384;BME280;51986;52.788;41.368;2023-01-30T04:40:11;98777.31;;;-3.81;55.34
65384;BME280;51986;52.788;41.368;2023-01-30T04:42:39;98800.09;;;-3.92;56.30
65384;BME280;51986;52.788;41.368;2023-01-30T04:45:24;98809.16;;;-3.86;55.78
65384;BME280;51986;52.788;41.368;2023-01-30T04:47:52;98812.94;;;-3.83;55.92
65384;BME280;51986;52.788;41.368;2023-01-30T04:50:19;98810.72;;;-3.93;55.76
65384;BME280;51986;52.788;41.368;2023-01-30T04:52:46;98808.56;;;-3.83;56.01
65384;BME280;51986;52.788;41.368;2023-01-30T04:55:13;98808.56;;;-4.00;56.41
65384;BME280;51986;52.788;41.368;2023-01-30T04:57:40;98813.72;;;-4.00;56.72
65384;BME280;51986;52.788;41.368;2023-01-30T05:00:08;98809.03;;;-3.98;56.74
65384;BME280;51986;52.788;41.368;2023-01-30T05:02:39;98797.69;;;-4.05;56.09
65384;BME280;51986;52.788;41.368;2023-01-30T05:05:06;98802.22;;;-4.02;56.54
65384;BME280;51986;52.788;41.368;2023-01-30T05:07:33;98815.97;;;-3.81;55.66
65384;BME280;51986;52.788;41.368;2023-01-30T05:10:00;98800.81;;;-3.83;55.94
65384;BME280;51986;52.788;41.368;2023-01-30T05:12:29;98820.84;;;-3.88;56.81
65384;BME280;51986;52.788;41.368;2023-01-30T05:14:57;98807.66;;;-3.87;56.59
65384;BME280;51986;52.788;41.368;2023-01-30T05:17:24;98795.84;;;-3.88;56.51
65384;BME280;51986;52.788;41.368;2023-01-30T05:19:51;98786.03;;;-4.12;56.58
65384;BME280;51986;52.788;41.368;2023-01-30T05:22:18;98817.22;;;-4.04;57.11
65384;BME280;51986;52.788;41.368;2023-01-30T05:24:45;98818.94;;;-4.17;57.15
65384;BME280;51986;52.788;41.368;2023-01-30T05:27:12;98794.19;;;-4.10;57.06
65384;BME280;51986;52.788;41.368;2023-01-30T05:29:39;98795.75;;;-4.09;56.70
65384;BME280;51986;52.788;41.368;2023-01-30T05:32:06;98756.63;;;-4.19;56.63
65384;BME280;51986;52.788;41.368;2023-01-30T05:34:33;98776.47;;;-4.02;56.89
65384;BME280;51986;52.788;41.368;2023-01-30T05:37:00;98779.38;;;-4.30;57.71
65384;BME280;51986;52.788;41.368;2023-01-30T05:39:27;98756.22;;;-4.21;57.33
65384;BME280;51986;52.788;41.368;2023-01-30T05:41:54;98772.09;;;-4.19;57.11
65384;BME280;51986;52.788;41.368;2023-01-30T05:44:21;98793.13;;;-4.00;57.12
65384;BME280;51986;52.788;41.368;2023-01-30T05:46:48;98781.72;;;-3.90;57.03
65384;BME280;51986;52.788;41.368;2023-01-30T05:49:15;98763.28;;;-4.01;57.30
65384;BME280;51986;52.788;41.368;2023-01-30T05:51:42;98784.81;;;-4.05;57.54
65384;BME280;51986;52.788;41.368;2023-01-30T05:54:09;98787.94;;;-3.83;56.37
65384;BME280;51986;52.788;41.368;2023-01-30T05:56:36;98795.06;;;-3.88;56.82
65384;BME280;51986;52.788;41.368;2023-01-30T05:59:03;98784.63;;;-3.92;57.15
65384;BME280;51986;52.788;41.368;2023-01-30T06:01:30;98784.25;;;-3.64;55.98
65384;BME280;51986;52.788;41.368;2023-01-30T06:03:57;98767.28;;;-3.65;55.85
65384;BME280;51986;52.788;41.368;2023-01-30T06:06:24;98785.75;;;-3.63;56.13
65384;BME280;51986;52.788;41.368;2023-01-30T06:08:53;98766.50;;;-3.66;56.63
65384;BME280;51986;52.788;41.368;2023-01-30T06:11:21;98770.81;;;-3.49;55.75
65384;BME280;51986;52.788;41.368;2023-01-30T06:13:48;98754.66;;;-3.28;55.38
65384;BME280;51986;52.788;41.368;2023-01-30T06:16:16;98739.72;;;-3.44;55.49
65384;BME280;51986;52.788;41.368;2023-01-30T06:18:44;98743.44;;;-3.33;55.42
65384;BME280;51986;52.788;41.368;2023-01-30T06:21:12;98746.69;;;-3.15;54.83
65384;BME280;51986;52.788;41.368;2023-01-30T06:23:40;98745.38;;;-3.00;53.95
65384;BME280;51986;52.788;41.368;2023-01-30T06:26:08;98755.91;;;-3.14;54.27
65384;BME280;51986;52.788;41.368;2023-01-30T06:28:35;98744.22;;;-3.11;54.34
65384;BME280;51986;52.788;41.368;2023-01-30T06:31:05;98760.97;;;-3.17;54.42
65384;BME280;51986;52.788;41.368;2023-01-30T06:33:32;98759.38;;;-3.31;54.90
65384;BME280;51986;52.788;41.368;2023-01-30T06:35:59;98723.88;;;-3.63;56.02
65384;BME280;51986;52.788;41.368;2023-01-30T06:38:26;98752.63;;;-3.23;54.82
65384;BME280;51986;52.788;41.368;2023-01-30T06:40:52;98746.47;;;-3.31;55.14
65384;BME280;51986;52.788;41.368;2023-01-30T06:43:20;98767.63;;;-3.16;55.09
65384;BME280;51986;52.788;41.368;2023-01-30T06:45:47;98767.88;;;-3.09;54.60
65384;BME280;51986;52.788;41.368;2023-01-30T06:48:14;98773.69;;;-3.12;54.51
65384;BME280;51986;52.788;41.368;2023-01-30T06:50:41;98771.16;;;-3.21;54.84
65384;BME280;51986;52.788;41.368;2023-01-30T06:53:09;98769.53;;;-3.05;54.66
65384;BME280;51986;52.788;41.368;2023-01-30T06:55:36;98756.84;;;-2.89;54.18
65384;BME280;51986;52.788;41.368;2023-01-30T07:00:32;98757.38;;;-2.62;53.96
65384;BME280;51986;52.788;41.368;2023-01-30T07:03:00;98772.28;;;-2.47;53.23
65384;BME280;51986;52.788;41.368;2023-01-30T07:05:27;98772.56;;;-2.40;52.63
65384;BME280;51986;52.788;41.368;2023-01-30T07:07:54;98777.59;;;-2.10;52.73
65384;BME280;51986;52.788;41.368;2023-01-30T07:10:21;98761.91;;;-1.93;52.13
65384;BME280;51986;52.788;41.368;2023-01-30T07:12:49;98783.44;;;-1.89;51.32
65384;BME280;51986;52.788;41.368;2023-01-30T07:15:16;98763.44;;;-1.55;50.97
65384;BME280;51986;52.788;41.368;2023-01-30T07:17:43;98785.34;;;-1.40;50.60
65384;BME280;51986;52.788;41.368;2023-01-30T07:20:10;98793.31;;;-1.21;49.86
65384;BME280;51986;52.788;41.368;2023-01-30T07:22:37;98770.97;;;-1.13;50.20
65384;BME280;51986;52.788;41.368;2023-01-30T07:25:05;98800.31;;;-0.97;49.39
65384;BME280;51986;52.788;41.368;2023-01-30T07:27:32;98791.47;;;-1.08;49.83
65384;BME280;51986;52.788;41.368;2023-01-30T07:29:59;98790.38;;;-1.32;50.12
65384;BME280;51986;52.788;41.368;2023-01-30T07:32:26;98778.44;;;-1.48;50.32
65384;BME280;51986;52.788;41.368;2023-01-30T07:34:53;98775.53;;;-1.47;49.92
65384;BME280;51986;52.788;41.368;2023-01-30T07:37:20;98763.34;;;-1.34;49.79
65384;BME280;51986;52.788;41.368;2023-01-30T07:39:47;98770.16;;;-1.54;50.43
65384;BME280;51986;52.788;41.368;2023-01-30T07:42:14;98753.22;;;-1.52;49.77
65384;BME280;51986;52.788;41.368;2023-01-30T07:44:41;98760.88;;;-1.43;50.23
65384;BME280;51986;52.788;41.368;2023-01-30T07:47:08;98754.31;;;-1.40;50.14
65384;BME280;51986;52.788;41.368;2023-01-30T07:49:35;98734.97;;;-1.80;51.04
65384;BME280;51986;52.788;41.368;2023-01-30T07:52:02;98742.22;;;-1.61;51.12
65384;BME280;51986;52.788;41.368;2023-01-30T07:54:29;98752.03;;;-1.42;49.94
65384;BME280;51986;52.788;41.368;2023-01-30T07:56:56;98725.50;;;-1.51;50.56
65384;BME280;51986;52.788;41.368;2023-01-30T07:59:23;98738.22;;;-1.83;50.60
65384;BME280;51986;52.788;41.368;2023-01-30T08:01:50;98753.84;;;-1.67;50.61
65384;BME280;51986;52.788;41.368;2023-01-30T08:04:17;98751.16;;;-1.70;50.62
65384;BME280;51986;52.788;41.368;2023-01-30T08:06:44;98743.28;;;-1.62;50.79
65384;BME280;51986;52.788;41.368;2023-01-30T08:09:11;98742.31;;;-1.69;50.84
65384;BME280;51986;52.788;41.368;2023-01-30T08:11:38;98718.78;;;-2.13;51.91
65384;BME280;51986;52.788;41.368;2023-01-30T08:14:05;98706.53;;;-2.04;51.71
65384;BME280;51986;52.788;41.368;2023-01-30T08:16:32;98716.22;;;-1.89;51.11
65384;BME280;51986;52.788;41.368;2023-01-30T08:18:59;98728.97;;;-1.71;50.77
65384;BME280;51986;52.788;41.368;2023-01-30T08:21:26;98710.75;;;-1.51;49.94
65384;BME280;51986;52.788;41.368;2023-01-30T08:23:53;98741.78;;;-1.63;50.50
65384;BME280;51986;52.788;41.368;2023-01-30T08:26:20;98699.44;;;-1.70;50.69
65384;BME280;51986;52.788;41.368;2023-01-30T08:28:47;98721.00;;;-1.79;50.62
65384;BME280;51986;52.788;41.368;2023-01-30T08:31:15;98713.00;;;-1.37;50.47
65384;BME280;51986;52.788;41.368;2023-01-30T08:33:43;98704.56;;;-1.21;50.29
65384;BME280;51986;52.788;41.368;2023-01-30T08:36:10;98709.13;;;-1.43;50.25
65384;BME280;51986;52.788;41.368;2023-01-30T08:38:37;98705.88;;;-1.28;49.28
65384;BME280;51986;52.788;41.368;2023-01-30T08:41:05;98698.88;;;-0.87;49.12
65384;BME280;51986;52.788;41.368;2023-01-30T08:43:33;98699.75;;;-0.95;48.57
65384;BME280;51986;52.788;41.368;2023-01-30T08:46:01;98715.63;;;-1.09;48.77
65384;BME280;51986;52.788;41.368;2023-01-30T08:48:28;98698.41;;;-0.77;48.80
65384;BME280;51986;52.788;41.368;2023-01-30T08:51:05;98694.44;;;-0.86;48.84
65384;BME280;51986;52.788;41.368;2023-01-30T08:53:33;98687.16;;;-0.96;48.48
65384;BME280;51986;52.788;41.368;2023-01-30T08:56:00;98706.53;;;-0.90;48.92
65384;BME280;51986;52.788;41.368;2023-01-30T08:58:26;98688.13;;;-0.73;47.88
65384;BME280;51986;52.788;41.368;2023-01-30T09:00:54;98674.78;;;-1.15;48.97
65384;BME280;51986;52.788;41.368;2023-01-30T09:03:21;98691.88;;;-0.99;48.68
65384;BME280;51986;52.788;41.368;2023-01-30T09:05:54;98667.31;;;-0.77;48.33
65384;BME280;51986;52.788;41.368;2023-01-30T09:08:21;98673.06;;;-0.83;48.45
65384;BME280;51986;52.788;41.368;2023-01-30T09:10:48;98672.13;;;-0.91;48.87
65384;BME280;51986;52.788;41.368;2023-01-30T09:13:15;98655.00;;;-0.95;48.50
65384;BME280;51986;52.788;41.368;2023-01-30T09:15:43;98661.09;;;-1.16;48.47
65384;BME280;51986;52.788;41.368;2023-01-30T09:18:10;98656.16;;;-0.93;48.42
65384;BME280;51986;52.788;41.368;2023-01-30T09:20:37;98665.72;;;-0.81;48.11
65384;BME280;51986;52.788;41.368;2023-01-30T09:23:04;98644.72;;;-0.92;47.32
65384;BME280;51986;52.788;41.368;2023-01-30T09:25:31;98642.66;;;-1.14;48.23
65384;BME280;51986;52.788;41.368;2023-01-30T09:27:58;98645.66;;;-0.84;47.82
65384;BME280;51986;52.788;41.368;2023-01-30T09:30:25;98664.72;;;-1.05;48.42
65384;BME280;51986;52.788;41.368;2023-01-30T09:32:52;98649.53;;;-1.06;48.55
65384;BME280;51986;52.788;41.368;2023-01-30T09:35:19;98632.84;;;-0.93;48.47
65384;BME280;51986;52.788;41.368;2023-01-30T09:37:48;98633.75;;;-0.73;48.21
65384;BME280;51986;52.788;41.368;2023-01-30T09:40:26;98623.16;;;-0.36;47.87
65384;BME280;51986;52.788;41.368;2023-01-30T09:43:16;98656.75;;;-0.56;47.99
65384;BME280;51986;52.788;41.368;2023-01-30T09:48:28;98618.53;;;-0.75;48.83
65384;BME280;51986;52.788;41.368;2023-01-30T09:56:38;98611.69;;;-0.51;47.69
65384;BME280;51986;52.788;41.368;2023-01-30T09:59:09;98586.13;;;-0.68;47.58
65384;BME280;51986;52.788;41.368;2023-01-30T10:04:50;98590.16;;;-0.99;47.61
65384;BME280;51986;52.788;41.368;2023-01-30T10:07:52;98601.47;;;-1.19;49.11
65384;BME280;51986;52.788;41.368;2023-01-30T10:16:20;98597.28;;;-1.24;49.61
65384;BME280;51986;52.788;41.368;2023-01-30T10:27:16;98576.44;;;-0.56;47.56
65384;BME280;51986;52.788;41.368;2023-01-30T10:29:49;98593.81;;;-0.72;48.89
65384;BME280;51986;52.788;41.368;2023-01-30T10:32:23;98566.97;;;-0.64;47.93
65384;BME280;51986;52.788;41.368;2023-01-30T10:34:55;98577.28;;;-0.67;48.05
65384;BME280;51986;52.788;41.368;2023-01-30T10:37:28;98571.34;;;-0.68;48.30
65384;BME280;51986;52.788;41.368;2023-01-30T10:40:17;98577.78;;;-0.62;48.12
65384;BME280;51986;52.788;41.368;2023-01-30T10:43:05;98569.09;;;-0.54;48.60
65384;BME280;51986;52.788;41.368;2023-01-30T10:46:03;98549.53;;;-0.83;48.29
65384;BME280;51986;52.788;41.368;2023-01-30T10:48:53;98546.00;;;-1.06;48.44
65384;BME280;51986;52.788;41.368;2023-01-30T10:54:36;98544.69;;;-1.28;48.72
65384;BME280;51986;52.788;41.368;2023-01-30T10:59:56;98537.53;;;-1.19;49.00
65384;BME280;51986;52.788;41.368;2023-01-30T11:03:17;98523.34;;;-1.53;48.75
65384;BME280;51986;52.788;41.368;2023-01-30T11:10:44;98535.69;;;-1.18;47.73
65384;BME280;51986;52.788;41.368;2023-01-30T11:13:19;98530.38;;;-1.10;47.21
65384;BME280;51986;52.788;41.368;2023-01-30T11:15:51;98523.53;;;-1.46;48.15
65384;BME280;51986;52.788;41.368;2023-01-30T11:18:20;98533.03;;;-1.50;47.77
65384;BME280;51986;52.788;41.368;2023-01-30T11:21:17;98529.06;;;-1.60;49.06
65384;BME280;51986;52.788;41.368;2023-01-30T11:23:45;98559.66;;;-1.49;48.22
65384;BME280;51986;52.788;41.368;2023-01-30T11:26:33;98553.91;;;-1.43;48.73
65384;BME280;51986;52.788;41.368;2023-01-30T11:29:31;98543.97;;;-1.41;48.58
65384;BME280;51986;52.788;41.368;2023-01-30T11:32:03;98523.41;;;-1.21;48.26
65384;BME280;51986;52.788;41.368;2023-01-30T11:34:31;98528.69;;;-1.46;48.63
65384;BME280;51986;52.788;41.368;2023-01-30T11:37:26;98551.34;;;-1.55;49.25
65384;BME280;51986;52.788;41.368;2023-01-30T11:39:56;98546.53;;;-1.57;49.09
65384;BME280;51986;52.788;41.368;2023-01-30T11:42:30;98529.63;;;-1.66;49.51
65384;BME280;51986;52.788;41.368;2023-01-30T11:44:59;98520.53;;;-1.48;49.02
65384;BME280;51986;52.788;41.368;2023-01-30T11:48:01;98532.56;;;-1.40;49.09
65384;BME280;51986;52.788;41.368;2023-01-30T11:50:42;98520.38;;;-1.39;48.97
65384;BME280;51986;52.788;41.368;2023-01-30T11:53:23;98525.28;;;-1.50;49.42
65384;BME280;51986;52.788;41.368;2023-01-30T11:56:03;98514.63;;;-1.61;50.10
65384;BME280;51986;52.788;41.368;2023-01-30T11:58:37;98519.00;;;-1.77;49.92
65384;BME280;51986;52.788;41.368;2023-01-30T12:01:08;98520.59;;;-1.72;49.84
65384;BME280;51986;52.788;41.368;2023-01-30T12:03:49;98504.25;;;-2.29;51.90
65384;BME280;51986;52.788;41.368;2023-01-30T12:06:31;98516.66;;;-1.82;50.26
65384;BME280;51986;52.788;41.368;2023-01-30T12:08:58;98497.72;;;-1.98;50.10
65384;BME280;51986;52.788;41.368;2023-01-30T12:14:40;98530.03;;;-1.92;51.57
65384;BME280;51986;52.788;41.368;2023-01-30T12:17:26;98514.88;;;-2.18;51.52
65384;BME280;51986;52.788;41.368;2023-01-30T12:22:38;98514.56;;;-2.29;51.44
65384;BME280;51986;52.788;41.368;2023-01-30T12:25:24;98489.09;;;-2.67;52.96
65384;BME280;51986;52.788;41.368;2023-01-30T12:30:33;98503.06;;;-2.93;53.69
65384;BME280;51986;52.788;41.368;2023-01-30T12:33:04;98514.13;;;-2.56;53.41
65384;BME280;51986;52.788;41.368;2023-01-30T12:36:01;98514.47;;;-2.82;52.96
65384;BME280;51986;52.788;41.368;2023-01-30T12:38:52;98514.22;;;-3.01;53.35
65384;BME280;51986;52.788;41.368;2023-01-30T12:41:37;98494.09;;;-2.95;53.71
65384;BME280;51986;52.788;41.368;2023-01-30T12:44:20;98510.25;;;-2.98;54.43
65384;BME280;51986;52.788;41.368;2023-01-30T12:47:24;98505.31;;;-2.91;53.33
65384;BME280;51986;52.788;41.368;2023-01-30T12:55:56;98521.03;;;-2.60;53.53
65384;BME280;51986;52.788;41.368;2023-01-30T13:01:44;98504.03;;;-2.48;53.24
65384;BME280;51986;52.788;41.368;2023-01-30T13:04:28;98509.97;;;-2.60;53.67
65384;BME280;51986;52.788;41.368;2023-01-30T13:10:06;98515.13;;;-2.60;53.92
65384;BME280;51986;52.788;41.368;2023-01-30T13:13:03;98470.25;;;-2.80;53.77
65384;BME280;51986;52.788;41.368;2023-01-30T13:18:20;98464.00;;;-2.67;54.03
65384;BME280;51986;52.788;41.368;2023-01-30T13:21:14;98487.03;;;-2.74;54.36
65384;BME280;51986;52.788;41.368;2023-01-30T13:26:28;98458.41;;;-2.81;54.22
65384;BME280;51986;52.788;41.368;2023-01-30T13:29:21;98476.06;;;-2.59;54.02
65384;BME280;51986;52.788;41.368;2023-01-30T13:31:53;98471.00;;;-2.80;54.09
65384;BME280;51986;52.788;41.368;2023-01-30T13:34:53;98478.75;;;-2.92;54.64
65384;BME280;51986;52.788;41.368;2023-01-30T13:37:21;98469.25;;;-3.00;54.42
65384;BME280;51986;52.788;41.368;2023-01-30T13:40:07;98472.72;;;-2.96;54.62
65384;BME280;51986;52.788;41.368;2023-01-30T13:42:44;98460.56;;;-3.08;54.82
65384;BME280;51986;52.788;41.368;2023-01-30T13:45:20;98457.03;;;-3.03;54.60
65384;BME280;51986;52.788;41.368;2023-01-30T13:50:39;98473.44;;;-3.20;55.96
65384;BME280;51986;52.788;41.368;2023-01-30T13:55:46;98476.84;;;-3.28;55.11
65384;BME280;51986;52.788;41.368;2023-01-30T14:01:02;98456.22;;;-3.28;54.83
65384;BME280;51986;52.788;41.368;2023-01-30T14:03:31;98444.50;;;-3.25;54.89
65384;BME280;51986;52.788;41.368;2023-01-30T14:06:25;98466.66;;;-3.24;55.56
65384;BME280;51986;52.788;41.368;2023-01-30T14:08:52;98446.75;;;-3.36;55.31
65384;BME280;51986;52.788;41.368;2023-01-30T14:11:36;98466.16;;;-3.06;55.26
65384;BME280;51986;52.788;41.368;2023-01-30T14:14:27;98460.22;;;-3.18;55.62
65384;BME280;51986;52.788;41.368;2023-01-30T14:17:12;98452.03;;;-3.20;55.57
65384;BME280;51986;52.788;41.368;2023-01-30T14:19:44;98445.81;;;-3.32;55.88
65384;BME280;51986;52.788;41.368;2023-01-30T14:38:35;98421.94;;;-3.41;56.16
65384;BME280;51986;52.788;41.368;2023-01-30T14:48:50;98464.34;;;-3.71;57.26
65384;BME280;51986;52.788;41.368;2023-01-30T14:51:47;98463.22;;;-3.62;57.25
65384;BME280;51986;52.788;41.368;2023-01-30T14:57:01;98441.84;;;-3.62;56.90
65384;BME280;51986;52.788;41.368;2023-01-30T15:04:45;98453.94;;;-3.96;57.52
65384;BME280;51986;52.788;41.368;2023-01-30T15:09:43;98447.53;;;-3.69;57.09
65384;BME280;51986;52.788;41.368;2023-01-30T15:14:59;98457.06;;;-3.90;57.75
65384;BME280;51986;52.788;41.368;2023-01-30T15:28:36;98415.88;;;-4.11;57.10
65384;BME280;51986;52.788;41.368;2023-01-30T15:31:14;98414.63;;;-4.26;58.11
65384;BME280;51986;52.788;41.368;2023-01-30T15:33:52;98422.22;;;-4.29;58.15
65384;BME280;51986;52.788;41.368;2023-01-30T15:36:29;98408.72;;;-4.26;57.58
65384;BME280;51986;52.788;41.368;2023-01-30T15:39:02;98434.44;;;-4.18;57.36
65384;BME280;51986;52.788;41.368;2023-01-30T15:41:36;98430.50;;;-4.24;57.79
65384;BME280;51986;52.788;41.368;2023-01-30T15:50:02;98412.00;;;-4.17;58.03
65384;BME280;51986;52.788;41.368;2023-01-30T15:52:37;98421.66;;;-4.35;57.83
65384;BME280;51986;52.788;41.368;2023-01-30T15:55:06;98429.06;;;-4.54;57.76
65384;BME280;51986;52.788;41.368;2023-01-30T15:57:35;98399.94;;;-4.76;58.97
65384;BME280;51986;52.788;41.368;2023-01-30T16:00:06;98413.00;;;-4.51;59.09
65384;BME280;51986;52.788;41.368;2023-01-30T16:02:41;98407.56;;;-4.58;58.88